Airfield :
LOGIN :

Register | Disclaimer

   EN    FR    IT 

 










Legend :    VFR   Marginal VFR   IFR   Intensive IFR   Very Intensive IFR
Visi :
Ceiling :
>= 8 km
>= 3000ft
5 to 8 km
1000 to 3000 ft
1500m to 5 km
500 to 1000 ft
800 to 1500m
200 to 500 ft
< 800m
< 200 ft
Symbols :   Thunderstorms  Fog  Heavy snow  Heavy precipitations  Wind > 20 kt
SIGMETs :     Misc.  Thunderstorms  Icing  Turbulence  Mountain Waves  Volcanic Ashes







- Airport Elevation : 53 ft
- IATA code : HAM


EDDH - Hamburg

CURRENT METAR :
  • 191250Z 28004KT 170V340 9999 FEW033 13/03 Q1026 NOSIG

EXPIRED METARs :
  • 191220Z VRB03KT 9999 SCT032 13/04 Q1026 NOSIG
  • 191150Z 32005KT 9999 SCT032 12/04 Q1026 NOSIG
  • 191120Z 30005KT 250V360 9999 SCT028 12/04 Q1026 NOSIG
  • 191050Z 27003KT 220V340 9999 SCT025 13/05 Q1026 NOSIG
  • 191020Z VRB02KT 9999 FEW020 SCT033 12/05 Q1027 NOSIG
  • 190950Z VRB01KT 9999 FEW030 11/07 Q1027 NOSIG

TAF TAF EDDH
Valid from the 19 at 12:00 until the 20 at 18:00 UTC


191100Z 1912/2018 36003KT 9999 SCT025
TEMPO 1922/2008 2000 BR
BECMG 2007/2009 27008KT
No reported NOTAMs for that airfield.



MET'MAP, your aeronautical weather chart ! - Copyright ORBIFLY December 2007 - Disclaimer

ORBIFLY MET'MAP TEAM :

Programming & Development : Alexandra Zaïnal
Concept & Development : Baudouin d'Aumeries
Co-Development & Prog : Marc-Olivier Méhu
Technical & hardware support : Manuel Goepfert

Contact : metmap@orbifly.com




SOURCES & CREDITS :

   NOAA